createdAt,value
2023-03-30T00:00:47.089Z,71.87
2023-03-30T00:01:47.104Z,61.39
2023-03-30T00:02:47.221Z,72.51
2023-03-30T00:03:47.425Z,74.28
2023-03-30T00:04:47.191Z,65.42
2023-03-30T00:05:47.037Z,72.03
2023-03-30T00:06:47.039Z,69.45
2023-03-30T00:07:47.030Z,72.51
2023-03-30T00:08:47.147Z,72.03
2023-03-30T00:09:47.075Z,53.17
2023-03-30T00:10:47.061Z,43.51
2023-03-30T00:11:47.005Z,48.98
2023-03-30T00:12:47.106Z,69.61
2023-03-30T00:13:46.990Z,72.03
2023-03-30T00:14:46.983Z,70.58
2023-03-30T00:15:46.995Z,68.96
2023-03-30T00:16:47.015Z,72.99
2023-03-30T00:17:47.064Z,70.90
2023-03-30T00:18:47.000Z,71.22
2023-03-30T00:19:46.953Z,74.28
2023-03-30T00:20:46.933Z,72.83
2023-03-30T00:21:46.942Z,69.29
2023-03-30T00:22:46.924Z,71.87
2023-03-30T00:23:46.921Z,69.45
2023-03-30T00:24:46.905Z,72.19
2023-03-30T00:25:46.896Z,56.72
2023-03-30T00:26:46.898Z,46.08
2023-03-30T00:27:46.906Z,71.54
2023-03-30T00:28:46.912Z,44.63
2023-03-30T00:29:46.871Z,71.87
2023-03-30T00:30:46.866Z,67.68
2023-03-30T00:31:46.935Z,71.70
2023-03-30T00:32:46.894Z,72.35
2023-03-30T00:33:47.756Z,73.96
2023-03-30T00:34:47.814Z,67.19
2023-03-30T00:35:46.865Z,50.76
2023-03-30T00:36:46.839Z,44.31
2023-03-30T00:37:46.817Z,43.99
2023-03-30T00:38:46.785Z,46.25
2023-03-30T00:39:46.795Z,69.45
2023-03-30T00:40:46.790Z,45.44
2023-03-30T00:41:46.785Z,67.51
2023-03-30T00:42:46.806Z,73.64
2023-03-30T00:43:46.752Z,74.28
2023-03-30T00:44:46.814Z,68.96
2023-03-30T00:45:46.769Z,68.48
2023-03-30T00:46:47.746Z,71.70
2023-03-30T00:47:46.761Z,45.76
2023-03-30T00:48:46.746Z,44.15
2023-03-30T00:49:46.712Z,69.13
2023-03-30T00:50:46.704Z,70.90
2023-03-30T00:51:46.692Z,75.41
2023-03-30T00:52:46.679Z,53.01
2023-03-30T00:53:46.693Z,63.16
2023-03-30T00:54:46.670Z,62.84
2023-03-30T00:55:46.668Z,73.32
2023-03-30T00:56:46.698Z,75.09
2023-03-30T00:57:46.667Z,54.95
2023-03-30T00:58:46.654Z,45.76
2023-03-30T00:59:46.697Z,69.45
2023-03-30T01:00:46.624Z,58.33
2023-03-30T01:01:46.683Z,79.28
2023-03-30T01:03:19.290Z,71.54
2023-03-30T01:03:46.805Z,45.28
2023-03-30T01:04:46.619Z,70.25
2023-03-30T01:05:46.577Z,68.80
2023-03-30T01:06:46.577Z,69.93
2023-03-30T01:07:46.580Z,68.16
2023-03-30T01:08:46.588Z,46.89
2023-03-30T01:09:47.309Z,43.83
2023-03-30T01:10:46.561Z,43.99
2023-03-30T01:11:46.566Z,43.83
2023-03-30T01:12:46.528Z,49.47
2023-03-30T01:13:46.535Z,74.44
2023-03-30T01:14:46.538Z,71.54
2023-03-30T01:15:46.567Z,46.73
2023-03-30T01:16:46.502Z,72.19
2023-03-30T01:17:46.525Z,43.83
2023-03-30T01:18:46.494Z,43.67
2023-03-30T01:19:46.499Z,44.79
2023-03-30T01:20:46.493Z,68.48
2023-03-30T01:21:46.464Z,69.29
2023-03-30T01:22:46.448Z,43.67
2023-03-30T01:23:46.454Z,48.66
2023-03-30T01:24:46.434Z,74.44
2023-03-30T01:25:46.472Z,44.63
2023-03-30T01:26:46.426Z,68.48
2023-03-30T01:27:46.457Z,46.89
2023-03-30T01:28:46.433Z,73.64
2023-03-30T01:29:46.410Z,68.32
2023-03-30T01:30:46.399Z,69.45
2023-03-30T01:31:46.392Z,43.99
2023-03-30T01:32:46.442Z,43.99
2023-03-30T01:33:46.377Z,44.31
2023-03-30T01:34:46.355Z,68.32
2023-03-30T01:35:46.452Z,44.15
2023-03-30T01:36:46.370Z,43.99
2023-03-30T01:37:46.355Z,69.45
2023-03-30T01:38:46.343Z,69.93
2023-03-30T01:39:46.317Z,43.34
2023-03-30T01:40:46.324Z,43.51
2023-03-30T01:41:46.330Z,44.47
2023-03-30T01:42:46.343Z,66.87
2023-03-30T01:43:46.350Z,72.83
2023-03-30T01:44:46.280Z,43.99
2023-03-30T01:45:46.299Z,43.51
2023-03-30T01:46:46.333Z,43.67
2023-03-30T01:47:46.332Z,45.60
2023-03-30T01:48:46.329Z,77.02
2023-03-30T01:49:46.254Z,47.37
2023-03-30T01:50:46.261Z,69.77
2023-03-30T01:51:46.253Z,43.83
2023-03-30T01:52:47.557Z,43.83
2023-03-30T01:53:46.202Z,67.84
2023-03-30T01:54:46.210Z,70.09
2023-03-30T01:55:46.192Z,71.70
2023-03-30T01:56:46.202Z,76.38
2023-03-30T01:57:46.217Z,69.93
2023-03-30T01:58:46.186Z,71.54
2023-03-30T01:59:46.201Z,43.34
2023-03-30T02:00:46.170Z,44.31
2023-03-30T02:01:46.191Z,46.25
2023-03-30T02:02:46.215Z,74.44
2023-03-30T02:03:46.236Z,48.18
2023-03-30T02:04:46.166Z,70.90
2023-03-30T02:05:46.120Z,71.54
2023-03-30T02:06:46.117Z,44.79
2023-03-30T02:07:46.103Z,47.05
2023-03-30T02:08:46.103Z,68.00
2023-03-30T02:09:46.074Z,48.18
2023-03-30T02:10:46.091Z,67.51
2023-03-30T02:11:46.059Z,72.99
2023-03-30T02:12:46.049Z,70.42
2023-03-30T02:13:46.049Z,46.41
2023-03-30T02:14:46.064Z,75.89
2023-03-30T02:15:46.047Z,44.63
2023-03-30T02:16:46.100Z,45.60
2023-03-30T02:17:46.083Z,67.35
2023-03-30T02:18:46.010Z,44.47
2023-03-30T02:19:46.001Z,73.80
2023-03-30T02:20:46.007Z,44.47
2023-03-30T02:21:45.990Z,45.12
2023-03-30T02:22:46.010Z,71.06
2023-03-30T02:23:46.012Z,71.38
2023-03-30T02:24:46.008Z,66.87
2023-03-30T02:25:45.937Z,45.12
2023-03-30T02:26:45.974Z,74.28
2023-03-30T02:27:46.386Z,73.80
2023-03-30T02:28:45.939Z,70.25
2023-03-30T02:29:46.021Z,54.46
2023-03-30T02:30:45.945Z,70.58
2023-03-30T02:31:46.004Z,74.60
2023-03-30T02:32:45.980Z,44.63
2023-03-30T02:33:45.930Z,43.99
2023-03-30T02:34:45.874Z,49.95
2023-03-30T02:35:45.917Z,73.32
2023-03-30T02:36:45.870Z,71.22
2023-03-30T02:37:45.871Z,45.12
2023-03-30T02:38:45.893Z,45.44
2023-03-30T02:39:45.858Z,72.99
2023-03-30T02:40:45.867Z,49.95
2023-03-30T02:41:45.823Z,45.76
2023-03-30T02:42:45.823Z,77.18
2023-03-30T02:43:45.845Z,71.70
2023-03-30T02:44:45.829Z,61.55
2023-03-30T02:45:45.835Z,70.74
2023-03-30T02:46:45.799Z,51.08
2023-03-30T02:47:45.823Z,73.32
2023-03-30T02:48:45.855Z,69.61
2023-03-30T02:49:45.785Z,71.87
2023-03-30T02:50:45.758Z,64.94
2023-03-30T02:51:45.756Z,70.42
2023-03-30T02:52:45.753Z,46.57
2023-03-30T02:53:46.339Z,74.44
2023-03-30T02:54:45.720Z,73.64
2023-03-30T02:55:45.751Z,69.29
2023-03-30T02:56:45.761Z,69.13
2023-03-30T02:57:45.696Z,72.51
2023-03-30T02:58:45.715Z,73.32
2023-03-30T02:59:45.705Z,69.45
2023-03-30T03:00:45.714Z,68.64
2023-03-30T03:01:45.707Z,73.15
2023-03-30T03:02:45.782Z,69.13
2023-03-30T03:03:45.747Z,46.57
2023-03-30T03:04:45.656Z,68.32
2023-03-30T03:05:45.665Z,72.51
2023-03-30T03:06:45.631Z,73.15
2023-03-30T03:07:45.628Z,71.06
2023-03-30T03:08:45.618Z,72.03
2023-03-30T03:09:46.237Z,73.80
2023-03-30T03:10:45.641Z,71.70
2023-03-30T03:11:45.670Z,68.00
2023-03-30T03:12:45.581Z,53.66
2023-03-30T03:13:45.626Z,48.02
2023-03-30T03:14:45.578Z,73.32
2023-03-30T03:15:45.610Z,71.22
2023-03-30T03:16:45.648Z,71.70
2023-03-30T03:17:45.602Z,73.80
2023-03-30T03:18:45.540Z,70.90
2023-03-30T03:19:45.537Z,70.74
2023-03-30T03:20:46.561Z,73.48
2023-03-30T03:21:45.523Z,58.81
2023-03-30T03:22:45.548Z,68.00
2023-03-30T03:23:45.508Z,80.41
2023-03-30T03:24:45.500Z,73.80
2023-03-30T03:25:45.543Z,75.25
2023-03-30T03:26:45.523Z,76.54
2023-03-30T03:27:45.485Z,72.83
2023-03-30T03:28:45.481Z,75.73
2023-03-30T03:29:45.454Z,76.22
2023-03-30T03:30:45.507Z,73.64
2023-03-30T03:31:45.516Z,74.77
2023-03-30T03:32:45.539Z,76.70
2023-03-30T03:33:45.464Z,77.34
2023-03-30T03:34:45.424Z,77.83
2023-03-30T03:35:45.471Z,74.60
2023-03-30T03:36:45.420Z,76.70
2023-03-30T03:37:45.404Z,75.09
2023-03-30T03:38:45.409Z,75.25
2023-03-30T03:39:45.423Z,74.44
2023-03-30T03:40:45.393Z,74.12
2023-03-30T03:41:45.399Z,75.73
2023-03-30T03:42:45.369Z,75.57
2023-03-30T03:43:45.343Z,75.89
2023-03-30T03:44:46.341Z,76.70
2023-03-30T03:45:45.352Z,72.99
2023-03-30T03:46:45.370Z,82.50
2023-03-30T04:03:57.398Z,83.31
2023-03-30T04:04:57.389Z,82.50
2023-03-30T04:05:57.328Z,83.63
2023-03-30T04:06:58.470Z,83.47
2023-03-30T04:07:58.492Z,77.18
2023-03-30T04:08:58.484Z,84.43
2023-03-30T04:09:58.457Z,75.09
2023-03-30T04:10:58.441Z,76.05
2023-03-30T04:11:58.438Z,81.69
2023-03-30T04:12:58.463Z,82.98
2023-03-30T04:13:58.437Z,79.44
2023-03-30T04:14:58.449Z,75.25
2023-03-30T04:15:58.422Z,82.82
2023-03-30T04:16:58.406Z,83.63
2023-03-30T04:17:58.434Z,83.79
2023-03-30T04:18:59.064Z,77.83
2023-03-30T04:19:58.402Z,75.73
2023-03-30T04:20:58.364Z,81.05
2023-03-30T04:21:58.363Z,77.02
2023-03-30T04:22:58.363Z,76.70
2023-03-30T04:23:58.349Z,78.31
2023-03-30T04:24:58.354Z,75.73
2023-03-30T04:25:58.337Z,75.57
2023-03-30T04:26:58.324Z,76.22
2023-03-30T04:27:58.326Z,76.05
2023-03-30T04:28:59.059Z,79.92
2023-03-30T04:29:58.359Z,76.22
2023-03-30T04:30:58.317Z,77.02
2023-03-30T04:31:58.302Z,75.25
2023-03-30T04:32:58.321Z,81.53
2023-03-30T04:33:58.254Z,82.50
2023-03-30T04:34:58.272Z,82.18
2023-03-30T04:35:58.316Z,81.86
2023-03-30T04:36:58.311Z,81.21
2023-03-30T04:37:58.261Z,82.02
2023-03-30T04:38:58.238Z,80.41
2023-03-30T04:39:58.240Z,75.25
2023-03-30T04:40:58.231Z,81.37
2023-03-30T04:41:58.205Z,80.73
2023-03-30T04:42:58.238Z,75.89
2023-03-30T04:43:58.218Z,83.47
2023-03-30T04:44:59.131Z,76.38
2023-03-30T04:45:58.275Z,83.47
2023-03-30T04:46:58.217Z,79.92
2023-03-30T04:47:58.198Z,82.02
2023-03-30T04:48:58.173Z,81.21
2023-03-30T04:49:58.152Z,82.50
2023-03-30T04:50:59.084Z,75.57
2023-03-30T04:51:58.158Z,80.89
2023-03-30T04:52:58.149Z,80.24
2023-03-30T04:53:58.136Z,74.28
2023-03-30T04:54:58.125Z,80.41
2023-03-30T04:55:58.142Z,81.21
2023-03-30T04:56:58.115Z,82.82
2023-03-30T04:57:58.130Z,76.38
2023-03-30T04:58:58.091Z,79.76
2023-03-30T04:59:58.075Z,82.50
2023-03-30T05:00:58.168Z,76.05
2023-03-30T05:01:58.206Z,76.70
2023-03-30T05:02:58.189Z,77.50
2023-03-30T05:03:58.093Z,75.25
2023-03-30T05:04:58.110Z,82.98
2023-03-30T05:05:58.020Z,82.02
2023-03-30T05:06:58.033Z,77.34
2023-03-30T05:07:58.532Z,79.12
2023-03-30T05:08:58.018Z,72.35
2023-03-30T05:09:58.599Z,81.21
2023-03-30T05:10:58.009Z,82.18
2023-03-30T05:11:57.994Z,80.73
2023-03-30T05:12:58.002Z,82.66
2023-03-30T05:13:57.996Z,81.69
2023-03-30T05:14:57.981Z,81.69
2023-03-30T05:15:58.045Z,77.34
2023-03-30T05:16:58.005Z,77.99
2023-03-30T05:17:57.980Z,75.09
2023-03-30T05:18:58.000Z,80.24
2023-03-30T05:19:57.942Z,79.76
2023-03-30T05:20:58.011Z,83.14
2023-03-30T05:21:57.950Z,75.25
2023-03-30T05:22:57.930Z,79.60
2023-03-30T05:23:57.920Z,78.15
2023-03-30T05:24:58.626Z,76.22
2023-03-30T05:25:57.922Z,80.24
2023-03-30T05:26:57.966Z,81.05
2023-03-30T05:27:57.893Z,75.25
2023-03-30T05:28:57.885Z,80.57
2023-03-30T05:29:57.864Z,75.89
2023-03-30T05:30:57.910Z,76.22
2023-03-30T05:31:57.845Z,77.18
2023-03-30T05:32:57.921Z,80.89
2023-03-30T05:33:57.821Z,74.12
2023-03-30T05:34:57.825Z,82.02
2023-03-30T05:35:57.868Z,74.77
2023-03-30T05:36:57.858Z,80.24
2023-03-30T05:37:57.809Z,81.21
2023-03-30T05:38:57.792Z,81.05
2023-03-30T05:39:57.849Z,79.28
2023-03-30T05:40:57.784Z,80.57
2023-03-30T05:41:57.784Z,74.28
2023-03-30T05:42:57.758Z,79.28
2023-03-30T05:43:57.809Z,77.83
2023-03-30T05:44:57.750Z,79.76
2023-03-30T05:45:57.758Z,75.09
2023-03-30T05:46:57.710Z,80.89
2023-03-30T05:47:57.752Z,81.37
2023-03-30T05:48:57.740Z,77.99
2023-03-30T05:49:57.721Z,75.73
2023-03-30T05:50:58.267Z,81.86
2023-03-30T05:51:57.704Z,78.31
2023-03-30T05:52:57.676Z,81.21
2023-03-30T05:53:57.665Z,80.89
2023-03-30T05:54:57.666Z,76.22
2023-03-30T05:55:57.675Z,75.25
2023-03-30T05:56:57.695Z,79.60
2023-03-30T05:57:57.641Z,74.60
2023-03-30T05:58:57.630Z,75.25
2023-03-30T05:59:57.657Z,78.31
2023-03-30T06:03:55.378Z,76.05
2023-03-30T06:04:56.394Z,75.09
2023-03-30T06:05:56.399Z,79.12
2023-03-30T06:06:56.331Z,74.28
2023-03-30T06:07:56.963Z,73.80
2023-03-30T06:08:56.352Z,72.51
2023-03-30T06:09:56.340Z,82.50
2023-03-30T06:10:56.335Z,81.53
2023-03-30T06:11:56.332Z,77.83
2023-03-30T06:12:56.316Z,80.08
2023-03-30T06:13:56.332Z,81.69
2023-03-30T06:14:56.330Z,82.66
2023-03-30T06:15:56.354Z,78.47
2023-03-30T06:16:56.306Z,74.77
2023-03-30T06:17:57.095Z,78.47
2023-03-30T06:18:56.297Z,76.86
2023-03-30T06:19:56.278Z,80.41
2023-03-30T06:20:56.258Z,81.21
2023-03-30T06:21:56.244Z,79.76
2023-03-30T06:22:56.229Z,74.12
2023-03-30T06:23:56.227Z,81.69
2023-03-30T06:24:56.214Z,73.64
2023-03-30T06:25:56.234Z,80.24
2023-03-30T06:26:56.214Z,80.73
2023-03-30T06:27:58.010Z,78.79
2023-03-30T06:28:56.202Z,81.05
2023-03-30T06:29:56.184Z,75.57
2023-03-30T06:30:57.005Z,74.12
2023-03-30T06:31:56.221Z,83.31
2023-03-30T06:32:56.985Z,81.21
2023-03-30T06:33:56.266Z,81.86
2023-03-30T06:34:56.206Z,79.60
2023-03-30T06:35:56.261Z,79.76
2023-03-30T06:36:56.234Z,76.70
2023-03-30T06:37:56.226Z,76.22
2023-03-30T06:38:56.242Z,81.21
2023-03-30T06:39:56.099Z,75.25
2023-03-30T06:40:56.108Z,82.82
2023-03-30T06:41:56.111Z,82.50
2023-03-30T06:42:56.104Z,79.76
2023-03-30T06:43:56.059Z,75.09
2023-03-30T06:44:56.066Z,81.05
2023-03-30T06:45:56.140Z,80.24
2023-03-30T06:46:56.045Z,81.86
2023-03-30T06:47:56.291Z,76.38
2023-03-30T06:48:56.037Z,81.37
2023-03-30T06:49:56.048Z,75.73
2023-03-30T06:50:56.043Z,78.15
2023-03-30T06:51:56.146Z,80.57
2023-03-30T06:52:55.993Z,75.09
2023-03-30T06:53:55.991Z,76.70
2023-03-30T06:54:56.004Z,79.60
2023-03-30T06:55:55.980Z,75.41
2023-03-30T06:56:56.065Z,82.34
2023-03-30T06:57:55.988Z,73.48
2023-03-30T06:58:56.034Z,80.41
2023-03-30T06:59:56.016Z,81.37
2023-03-30T07:00:55.969Z,79.28
2023-03-30T07:01:56.359Z,79.60
2023-03-30T07:02:55.964Z,73.15
2023-03-30T07:03:55.937Z,79.76
2023-03-30T07:04:55.946Z,82.34
2023-03-30T07:05:55.906Z,81.69
2023-03-30T07:06:56.480Z,75.09
2023-03-30T07:07:55.926Z,72.35
2023-03-30T07:08:55.891Z,69.93
2023-03-30T07:09:55.864Z,78.96
2023-03-30T07:10:55.934Z,80.41
2023-03-30T07:11:56.589Z,74.77
2023-03-30T07:12:56.864Z,80.57
2023-03-30T07:13:55.872Z,81.37
2023-03-30T07:14:55.894Z,74.44
2023-03-30T07:15:55.872Z,77.34
2023-03-30T07:16:55.886Z,77.18
2023-03-30T07:17:55.928Z,80.89
2023-03-30T07:18:55.822Z,81.37
2023-03-30T07:19:55.868Z,80.73
2023-03-30T07:20:55.805Z,75.89
2023-03-30T07:21:55.811Z,78.79
2023-03-30T07:22:55.814Z,80.08
2023-03-30T07:23:56.538Z,73.96
2023-03-30T07:24:55.768Z,76.54
2023-03-30T07:25:55.748Z,76.54
2023-03-30T07:26:55.776Z,82.18
2023-03-30T07:27:55.745Z,77.02
2023-03-30T07:28:55.740Z,82.02
2023-03-30T07:29:55.730Z,82.18
2023-03-30T07:30:55.776Z,78.31
2023-03-30T07:31:55.711Z,80.73
2023-03-30T07:32:58.214Z,78.15
2023-03-30T07:33:56.726Z,79.28
2023-03-30T07:34:55.707Z,74.12
2023-03-30T07:35:55.787Z,75.25
2023-03-30T07:36:55.711Z,74.28
2023-03-30T07:38:57.299Z,77.50
2023-03-30T07:39:55.725Z,75.89
2023-03-30T07:40:55.716Z,81.21
2023-03-30T07:41:55.746Z,79.76
2023-03-30T07:42:55.660Z,83.47
2023-03-30T07:43:55.635Z,74.93
2023-03-30T07:44:55.603Z,77.34
2023-03-30T07:45:55.631Z,74.93
2023-03-30T07:46:55.622Z,79.60
2023-03-30T07:47:55.628Z,74.77
2023-03-30T07:48:55.629Z,75.25
2023-03-30T07:49:55.589Z,75.73
2023-03-30T07:50:55.568Z,81.05
2023-03-30T07:51:56.568Z,78.63
2023-03-30T07:52:55.548Z,75.73
2023-03-30T07:53:55.562Z,77.99
2023-03-30T07:54:55.586Z,77.50
2023-03-30T07:55:55.544Z,72.83
2023-03-30T07:56:55.598Z,78.79
2023-03-30T07:57:55.542Z,81.05
2023-03-30T07:58:55.525Z,76.54
2023-03-30T07:59:55.505Z,79.12
2023-03-30T08:00:55.482Z,82.02
2023-03-30T08:01:55.541Z,77.02
2023-03-30T08:02:55.643Z,77.67
2023-03-30T08:03:55.564Z,75.89
2023-03-30T08:04:55.791Z,75.73
2023-03-30T08:05:56.505Z,83.14
2023-03-30T08:06:55.523Z,84.11
2023-03-30T08:07:57.013Z,81.69
2023-03-30T08:08:55.542Z,83.95
2023-03-30T08:09:55.430Z,82.02
2023-03-30T08:10:55.481Z,83.14
2023-03-30T08:11:55.445Z,76.70
2023-03-30T08:12:55.405Z,77.02
2023-03-30T08:13:55.402Z,74.77
2023-03-30T08:14:55.428Z,82.34
2023-03-30T08:15:55.428Z,83.31
2023-03-30T08:16:55.362Z,83.63
2023-03-30T08:17:55.433Z,77.02
2023-03-30T08:18:55.368Z,81.21
2023-03-30T08:19:55.329Z,80.57
2023-03-30T08:20:55.362Z,75.09
2023-03-30T08:21:55.367Z,82.34
2023-03-30T08:22:55.350Z,72.03
2023-03-30T08:23:55.366Z,79.76
2023-03-30T08:24:55.301Z,82.02
2023-03-30T08:25:55.481Z,71.54
2023-03-30T08:26:55.382Z,75.73
2023-03-30T08:27:55.288Z,79.12
2023-03-30T08:28:55.334Z,81.37
2023-03-30T08:29:55.297Z,78.15
2023-03-30T08:30:55.292Z,74.28
2023-03-30T08:31:55.305Z,76.38
2023-03-30T08:32:55.396Z,80.73
2023-03-30T08:33:55.305Z,76.54
2023-03-30T08:34:55.245Z,74.60
2023-03-30T08:35:55.230Z,74.44
2023-03-30T08:36:55.266Z,80.73
2023-03-30T08:37:55.241Z,81.86
2023-03-30T08:38:55.210Z,79.28
2023-03-30T08:39:55.232Z,82.18
2023-03-30T08:40:55.200Z,81.53
2023-03-30T08:41:55.253Z,81.53
2023-03-30T08:42:55.207Z,82.02
2023-03-30T08:43:55.193Z,72.51
2023-03-30T08:44:55.164Z,77.99
2023-03-30T08:45:55.261Z,77.99
2023-03-30T08:46:55.143Z,81.69
2023-03-30T08:47:55.196Z,82.02
2023-03-30T08:48:55.148Z,73.80
2023-03-30T08:49:55.137Z,79.28
2023-03-30T08:50:55.139Z,80.73
2023-03-30T08:51:55.118Z,78.31
2023-03-30T08:52:55.216Z,74.60
2023-03-30T08:53:55.101Z,73.80
2023-03-30T08:54:55.081Z,79.76
2023-03-30T08:55:55.076Z,74.12
2023-03-30T08:56:55.075Z,79.44
2023-03-30T08:57:55.118Z,77.50
2023-03-30T08:58:55.157Z,74.12
2023-03-30T08:59:55.056Z,77.67
2023-03-30T09:00:56.065Z,74.60
2023-03-30T09:01:55.062Z,79.44
2023-03-30T09:02:55.097Z,81.05
2023-03-30T09:03:55.053Z,76.70
2023-03-30T09:04:55.082Z,80.73
2023-03-30T09:05:55.007Z,74.93
2023-03-30T09:06:54.988Z,73.64
2023-03-30T09:07:55.088Z,78.79
2023-03-30T09:08:56.152Z,73.48
2023-03-30T09:09:55.038Z,80.24
2023-03-30T09:10:54.973Z,74.44
2023-03-30T09:11:54.947Z,73.64
2023-03-30T09:12:54.991Z,80.73
2023-03-30T09:13:54.961Z,77.02
2023-03-30T09:14:54.975Z,81.37
2023-03-30T09:15:54.906Z,79.28
2023-03-30T09:16:54.991Z,82.34
2023-03-30T09:17:54.972Z,82.02
2023-03-30T09:18:54.929Z,75.09
2023-03-30T09:19:54.925Z,79.12
2023-03-30T09:20:54.915Z,78.15
2023-03-30T09:21:54.929Z,80.73
2023-03-30T09:22:55.489Z,77.02
2023-03-30T09:23:54.866Z,73.48
2023-03-30T09:24:54.922Z,73.80
2023-03-30T09:25:54.937Z,78.63
2023-03-30T09:26:54.884Z,77.83
2023-03-30T09:27:54.824Z,78.96
2023-03-30T09:28:54.842Z,74.77
2023-03-30T09:29:54.859Z,78.31
2023-03-30T09:30:54.871Z,80.89
2023-03-30T09:31:54.880Z,74.77
2023-03-30T09:32:54.833Z,79.60
2023-03-30T09:33:54.813Z,70.09
2023-03-30T09:34:54.802Z,75.73
2023-03-30T09:35:54.964Z,77.18
2023-03-30T09:36:54.790Z,79.28
2023-03-30T09:37:55.864Z,77.83
2023-03-30T09:38:54.769Z,80.73
2023-03-30T09:39:54.733Z,74.93
2023-03-30T09:40:54.749Z,78.79
2023-03-30T09:41:54.784Z,71.70
2023-03-30T09:42:55.572Z,71.38
2023-03-30T09:43:54.719Z,79.12
2023-03-30T09:44:54.752Z,80.73
2023-03-30T09:45:54.892Z,77.18
2023-03-30T09:46:54.713Z,71.54
2023-03-30T09:47:54.824Z,73.15
2023-03-30T09:48:54.666Z,75.89
2023-03-30T09:49:54.662Z,77.67
2023-03-30T09:50:54.672Z,78.96
2023-03-30T09:51:54.678Z,76.38
2023-03-30T09:52:55.848Z,72.35
2023-03-30T09:53:54.661Z,74.93
2023-03-30T09:54:54.621Z,74.60
2023-03-30T09:55:54.615Z,75.73
2023-03-30T09:56:54.671Z,72.19
2023-03-30T09:57:54.616Z,78.96
2023-03-30T09:58:54.616Z,74.77
2023-03-30T09:59:54.611Z,79.28
2023-03-30T10:00:54.606Z,75.89
2023-03-30T10:01:54.595Z,73.64
2023-03-30T10:02:54.670Z,76.86
2023-03-30T10:03:54.787Z,76.38
2023-03-30T10:04:54.652Z,76.22
2023-03-30T10:05:54.566Z,75.73
2023-03-30T10:06:54.602Z,73.32
2023-03-30T10:07:54.652Z,77.34
2023-03-30T10:08:54.581Z,72.99
2023-03-30T10:09:54.532Z,76.38
2023-03-30T10:10:54.520Z,75.09
2023-03-30T10:11:54.580Z,77.02
2023-03-30T10:12:54.549Z,76.05
2023-03-30T10:13:54.509Z,77.83
2023-03-30T10:14:54.555Z,74.60
2023-03-30T10:15:54.597Z,73.32
2023-03-30T10:16:54.492Z,75.41
2023-03-30T10:17:54.571Z,72.99
2023-03-30T10:18:54.597Z,80.24
2023-03-30T10:20:03.651Z,70.90
2023-03-30T10:20:56.560Z,79.12
2023-03-30T10:21:54.436Z,71.70
2023-03-30T10:22:54.500Z,78.31
2023-03-30T10:23:54.427Z,77.18
2023-03-30T10:24:54.472Z,73.15
2023-03-30T10:25:54.378Z,72.03
2023-03-30T10:26:54.456Z,77.83
2023-03-30T10:27:54.401Z,80.08
2023-03-30T10:28:54.401Z,76.86
2023-03-30T10:29:54.396Z,77.83
2023-03-30T10:30:54.420Z,74.12
2023-03-30T10:31:54.392Z,74.60
2023-03-30T10:32:54.362Z,73.96
2023-03-30T10:33:54.344Z,73.32
2023-03-30T10:34:54.360Z,77.02
2023-03-30T10:35:54.355Z,72.99
2023-03-30T10:36:54.929Z,79.92
2023-03-30T10:37:54.324Z,71.70
2023-03-30T10:38:54.297Z,71.70
2023-03-30T10:39:54.339Z,76.54
2023-03-30T10:40:54.385Z,70.74
2023-03-30T10:41:54.346Z,74.28
2023-03-30T10:42:54.386Z,74.12
2023-03-30T10:43:54.258Z,77.67
2023-03-30T10:44:54.298Z,77.50
2023-03-30T10:45:54.417Z,71.06
2023-03-30T10:46:54.347Z,77.67
2023-03-30T10:47:54.297Z,72.67
2023-03-30T10:48:54.230Z,77.18
2023-03-30T10:49:54.277Z,71.87
2023-03-30T10:50:54.215Z,75.73
2023-03-30T10:51:54.336Z,70.09
2023-03-30T10:52:58.836Z,76.70
2023-03-30T10:53:56.860Z,73.15
2023-03-30T10:54:54.187Z,81.21
2023-03-30T10:55:54.178Z,73.48
2023-03-30T10:56:55.025Z,81.69
2023-03-30T10:57:54.165Z,74.44
2023-03-30T10:58:54.210Z,74.93
2023-03-30T10:59:54.152Z,72.67
2023-03-30T11:00:55.101Z,74.12
2023-03-30T11:01:54.192Z,80.41
2023-03-30T11:02:54.256Z,76.70
2023-03-30T11:03:54.274Z,79.12
2023-03-30T11:04:54.146Z,78.63
2023-03-30T11:05:54.139Z,72.51
2023-03-30T11:06:54.102Z,78.79
2023-03-30T11:07:54.123Z,75.73
2023-03-30T11:08:54.276Z,70.42
2023-03-30T11:09:54.106Z,74.44
2023-03-30T11:10:54.120Z,75.09
2023-03-30T11:11:54.061Z,75.73
2023-03-30T11:12:54.046Z,77.50
2023-03-30T11:13:54.101Z,76.54
2023-03-30T11:14:54.048Z,71.54
2023-03-30T11:15:54.035Z,76.86
2023-03-30T11:16:54.118Z,74.44
2023-03-30T11:17:54.063Z,72.83
2023-03-30T11:18:54.108Z,75.89
2023-03-30T11:19:54.039Z,77.83
2023-03-30T11:20:54.007Z,71.38
2023-03-30T11:21:53.993Z,77.02
2023-03-30T11:22:53.988Z,78.96
2023-03-30T11:23:53.980Z,78.31
2023-03-30T11:24:53.958Z,73.80
2023-03-30T11:25:53.984Z,77.34
2023-03-30T11:26:53.970Z,78.63
2023-03-30T11:27:56.238Z,74.77
2023-03-30T11:28:54.945Z,75.09
2023-03-30T11:29:54.054Z,73.96
2023-03-30T11:30:53.947Z,77.34
2023-03-30T11:31:53.965Z,80.73
2023-03-30T11:32:53.966Z,72.99
2023-03-30T11:33:53.906Z,72.35
2023-03-30T11:34:54.011Z,73.96
2023-03-30T11:35:54.369Z,74.12
2023-03-30T11:36:53.914Z,77.18
2023-03-30T11:37:53.912Z,72.67
2023-03-30T11:38:53.888Z,74.60
2023-03-30T11:39:53.876Z,72.03
2023-03-30T11:40:53.851Z,78.79
2023-03-30T11:41:53.849Z,78.15
2023-03-30T11:42:53.874Z,75.73
2023-03-30T11:43:53.810Z,71.54
2023-03-30T11:44:53.819Z,75.25
2023-03-30T11:45:53.989Z,77.99
2023-03-30T11:46:53.864Z,78.47
2023-03-30T11:47:53.846Z,73.48
2023-03-30T11:48:53.780Z,75.89
2023-03-30T11:49:53.820Z,78.31
2023-03-30T11:50:53.826Z,73.32
2023-03-30T11:51:53.779Z,74.44
2023-03-30T11:52:53.788Z,75.25
2023-03-30T11:53:53.779Z,78.79
2023-03-30T11:55:03.070Z,75.41
2023-03-30T11:55:55.733Z,79.44
2023-03-30T11:56:53.864Z,77.99
2023-03-30T11:57:53.776Z,76.86
2023-03-30T11:58:53.748Z,75.41
2023-03-30T11:59:53.733Z,76.86
2023-03-30T12:00:53.715Z,77.34
2023-03-30T12:01:54.551Z,73.48
2023-03-30T12:02:53.905Z,72.35
2023-03-30T12:03:54.745Z,81.05
2023-03-30T12:04:53.707Z,76.70
2023-03-30T12:05:53.656Z,83.79
2023-03-30T12:06:53.641Z,75.41
2023-03-30T12:07:53.737Z,79.44
2023-03-30T12:08:53.843Z,72.67
2023-03-30T12:09:53.663Z,76.54
2023-03-30T12:10:53.634Z,77.83
2023-03-30T12:11:53.612Z,78.31
2023-03-30T12:12:53.611Z,80.08
2023-03-30T12:13:53.639Z,78.31
2023-03-30T12:14:53.618Z,76.70
2023-03-30T12:15:53.788Z,77.83
2023-03-30T12:16:53.599Z,80.89
2023-03-30T12:17:53.658Z,83.14
2023-03-30T12:18:53.533Z,81.69
2023-03-30T12:19:56.411Z,85.88
2023-03-30T12:20:54.528Z,87.33
2023-03-30T12:21:53.547Z,83.63
2023-03-30T12:22:53.518Z,83.31
2023-03-30T12:23:53.505Z,84.43
2023-03-30T12:24:53.596Z,79.12
2023-03-30T12:25:53.514Z,81.69
2023-03-30T12:27:54.464Z,82.02
2023-03-30T12:29:32.607Z,83.79
2023-03-30T12:30:01.788Z,87.98
2023-03-30T12:30:55.484Z,81.05
2023-03-30T12:31:53.556Z,82.18
2023-03-30T12:32:53.462Z,84.43
2023-03-30T12:33:53.450Z,83.63
2023-03-30T12:34:53.456Z,84.27
2023-03-30T12:35:53.546Z,84.11
2023-03-30T12:36:53.439Z,77.99
2023-03-30T12:37:53.386Z,82.66
2023-03-30T12:38:53.402Z,81.37
2023-03-30T12:39:53.390Z,83.47
2023-03-30T12:40:53.484Z,79.28
2023-03-30T12:41:55.352Z,81.69
2023-03-30T12:42:53.367Z,80.57
2023-03-30T12:43:53.337Z,81.86
2023-03-30T12:44:53.386Z,81.53
2023-03-30T12:45:53.403Z,82.98
2023-03-30T12:46:53.334Z,82.02
2023-03-30T12:47:53.395Z,81.05
2023-03-30T12:48:53.346Z,80.57
2023-03-30T12:49:53.308Z,83.47
2023-03-30T12:50:53.369Z,76.70
2023-03-30T12:51:53.318Z,79.92
2023-03-30T12:52:53.318Z,82.82
2023-03-30T12:53:53.271Z,83.63
2023-03-30T12:54:53.282Z,82.98
2023-03-30T12:55:54.092Z,83.14
2023-03-30T12:56:53.300Z,81.69
2023-03-30T12:57:53.261Z,78.79
2023-03-30T12:58:53.260Z,82.50
2023-03-30T12:59:53.267Z,79.92
2023-03-30T13:00:53.273Z,82.98
2023-03-30T13:01:53.251Z,82.66
2023-03-30T13:02:53.242Z,85.56
2023-03-30T13:03:54.110Z,83.14
2023-03-30T13:04:53.207Z,74.77
2023-03-30T13:05:53.261Z,83.31
2023-03-30T13:06:53.189Z,82.02
2023-03-30T13:07:53.277Z,75.09
2023-03-30T13:08:53.180Z,80.24
2023-03-30T13:09:53.224Z,83.63
2023-03-30T13:10:53.146Z,77.18
2023-03-30T13:11:53.149Z,75.89
2023-03-30T13:12:53.117Z,82.02
2023-03-30T13:13:54.136Z,81.37